Terminal Aerodrome Forecast
Issued by NWS Wilmington, OH

Home | Current Version | Previous Version | Text Only | Print | Product List | Glossary On
Versions: 1 2 3 4 5 6 7 8 9 10 11 12 13 14 15 16 17 18 19 20 21 22 23 24
000
FTUS41 KILN 021140
TAFCVG
TAF
KCVG 021140Z 0212/0318 VRB03KT 5SM BR FEW070
     FM021400 28005KT P6SM SCT040 SCT100
     FM021700 29005KT P6SM VCSH BKN050
     FM030000 VRB03KT P6SM SCT050 SCT100
     FM030900 VRB02KT 4SM BR SCT120
     FM031300 28005KT P6SM SCT040 SCT100=

USA.gov is the U.S. government's official web portal to all federal, state and local government web resources and services.